East Bend, North Carolina
Current Conditions -  °F | °C
As of 7:54 AM on Sunday 23 Nov 2014 (Local Time) from KINT Reporting Station
Overcast Overcast  
Wind Chill: 43°   Ceiling: 1800
Heat Index: 43°   Visibility: 10mi
Dew Point: 27°   Wind: 0mph
Humidity: 53%   Direction: NA
Pressure: 30.23"   Gusts: NA
Location:  36.22°N, 80.51°W
Report Text: KINT 231254Z 00000KT 10SM OVC018 06/M03 A3023 RMK AO2 SLP239 T00611028
Loading
Personal Weather Stations






























Interactive Weather Map New forecast layout! Learn more

10-Day Weather Forecast

Advertisements
Track Severe Weather on mobile